Miley Memorial field
KBPI : now visible

Airfield :











YOU CAN JOIN US ON...

 
LOGIN :

Register | Disclaimer

   EN    FR    IT 

 









Legend :    VFR   Marginal VFR   IFR   Intensive IFR   Very Intensive IFR
Visi :
Ceiling :
>= 8 km
>= 3000ft
5 to 8 km
1000 to 3000 ft
1500m to 5 km
500 to 1000 ft
800 to 1500m
200 to 500 ft
< 800m
< 200 ft
Symbols :   Thunderstorms  Fog  Heavy snow  Heavy precipitations  Wind > 20 kt






- Airport Elevation : 6990 ft


KBPI - Miley Memorial field

CURRENT METAR :
  • 151553Z AUTO 34003KT 10SM CLR M25/M27 A2984 RMK AO2 SLP211 T12501267

EXPIRED METARs :
  • 151453Z AUTO 07004KT 10SM CLR M27/M29 A2982 RMK AO2 SLP210 T12671289 53001
  • 151353Z AUTO 00000KT 10SM CLR M26/M27 A2982 RMK AO2 SLP208 T12561272

TAF KBPI
Valid from the 15 at 12:00 until the 16 at 12:00 UTC


151124Z 1512/1612 VRB05KT P6SM SCT150
FM151900 VRB05KT P6SM SCT040
FM160600 VRB04KT P6SM FEW200



MET'MAP, your aeronautical weather chart ! - Copyright ORBIFLY December 2007 - Disclaimer

ORBIFLY MET'MAP TEAM :

Programming & Development : Alexandra Zaïnal
Concept & original design : Baudouin d'Aumeries
Assistance for programming : Marc-Olivier Méhu
Technical & hardware support : Manuel Goepfert

Contact : metmap@orbifly.com




SOURCES & CREDITS :

   NOAA       Earth
Advisory